sensor_id;sensor_type;location;lat;lon;timestamp;temperature;humidity
45115;DHT22;30877;43.706;10.780;2023-06-19T00:02:25;24.70;96.70
45115;DHT22;30877;43.706;10.780;2023-06-19T00:04:53;24.60;96.70
45115;DHT22;30877;43.706;10.780;2023-06-19T00:07:21;24.60;96.70
45115;DHT22;30877;43.706;10.780;2023-06-19T00:09:49;24.70;96.70
45115;DHT22;30877;43.706;10.780;2023-06-19T00:12:27;24.60;96.70
45115;DHT22;30877;43.706;10.780;2023-06-19T00:14:57;24.60;96.70
45115;DHT22;30877;43.706;10.780;2023-06-19T00:17:26;24.40;96.70
45115;DHT22;30877;43.706;10.780;2023-06-19T00:19:55;24.30;96.70
45115;DHT22;30877;43.706;10.780;2023-06-19T00:22:24;24.40;96.70
45115;DHT22;30877;43.706;10.780;2023-06-19T00:24:53;24.50;96.70
45115;DHT22;30877;43.706;10.780;2023-06-19T00:27:22;24.40;96.70
45115;DHT22;30877;43.706;10.780;2023-06-19T00:29:51;24.30;96.70
45115;DHT22;30877;43.706;10.780;2023-06-19T00:32:21;24.40;96.70
45115;DHT22;30877;43.706;10.780;2023-06-19T00:34:49;24.50;96.70
45115;DHT22;30877;43.706;10.780;2023-06-19T00:37:17;24.50;96.70
45115;DHT22;30877;43.706;10.780;2023-06-19T00:39:46;24.50;96.70
45115;DHT22;30877;43.706;10.780;2023-06-19T00:42:14;24.40;96.70
45115;DHT22;30877;43.706;10.780;2023-06-19T00:44:42;24.40;96.70
45115;DHT22;30877;43.706;10.780;2023-06-19T00:47:11;24.40;96.70
45115;DHT22;30877;43.706;10.780;2023-06-19T00:49:40;24.40;96.70
45115;DHT22;30877;43.706;10.780;2023-06-19T00:52:09;24.30;96.70
45115;DHT22;30877;43.706;10.780;2023-06-19T00:54:38;24.30;96.70
45115;DHT22;30877;43.706;10.780;2023-06-19T00:57:07;24.20;96.70
45115;DHT22;30877;43.706;10.780;2023-06-19T00:59:36;24.20;96.70
45115;DHT22;30877;43.706;10.780;2023-06-19T01:02:04;24.10;96.70
45115;DHT22;30877;43.706;10.780;2023-06-19T01:04:33;24.00;96.70
45115;DHT22;30877;43.706;10.780;2023-06-19T01:07:07;24.00;96.70
45115;DHT22;30877;43.706;10.780;2023-06-19T01:09:42;24.10;96.70
45115;DHT22;30877;43.706;10.780;2023-06-19T01:12:15;24.10;96.70
45115;DHT22;30877;43.706;10.780;2023-06-19T01:14:50;24.10;96.70
45115;DHT22;30877;43.706;10.780;2023-06-19T01:17:21;24.00;96.70
45115;DHT22;30877;43.706;10.780;2023-06-19T01:19:49;24.00;96.70
45115;DHT22;30877;43.706;10.780;2023-06-19T01:22:28;23.90;96.70
45115;DHT22;30877;43.706;10.780;2023-06-19T01:24:59;23.90;96.70
45115;DHT22;30877;43.706;10.780;2023-06-19T01:27:28;23.90;96.70
45115;DHT22;30877;43.706;10.780;2023-06-19T01:30:00;23.90;96.70
45115;DHT22;30877;43.706;10.780;2023-06-19T01:32:34;23.80;96.70
45115;DHT22;30877;43.706;10.780;2023-06-19T01:35:08;23.80;96.70
45115;DHT22;30877;43.706;10.780;2023-06-19T01:37:40;23.80;96.70
45115;DHT22;30877;43.706;10.780;2023-06-19T01:40:10;23.80;96.70
45115;DHT22;30877;43.706;10.780;2023-06-19T01:42:39;23.80;96.70
45115;DHT22;30877;43.706;10.780;2023-06-19T01:45:08;23.80;96.70
45115;DHT22;30877;43.706;10.780;2023-06-19T01:47:37;23.80;96.70
45115;DHT22;30877;43.706;10.780;2023-06-19T01:50:06;23.80;96.70
45115;DHT22;30877;43.706;10.780;2023-06-19T01:52:36;23.60;96.70
45115;DHT22;30877;43.706;10.780;2023-06-19T01:55:06;23.40;96.70
45115;DHT22;30877;43.706;10.780;2023-06-19T01:57:35;23.50;96.70
45115;DHT22;30877;43.706;10.780;2023-06-19T02:00:05;23.40;96.70
45115;DHT22;30877;43.706;10.780;2023-06-19T02:02:40;23.50;96.70
45115;DHT22;30877;43.706;10.780;2023-06-19T02:05:08;23.60;96.70
45115;DHT22;30877;43.706;10.780;2023-06-19T02:07:36;23.60;96.70
45115;DHT22;30877;43.706;10.780;2023-06-19T02:10:06;23.70;96.70
45115;DHT22;30877;43.706;10.780;2023-06-19T02:12:35;23.60;96.70
45115;DHT22;30877;43.706;10.780;2023-06-19T02:15:04;23.60;96.70
45115;DHT22;30877;43.706;10.780;2023-06-19T02:17:32;23.50;96.70
45115;DHT22;30877;43.706;10.780;2023-06-19T02:20:03;23.40;96.70
45115;DHT22;30877;43.706;10.780;2023-06-19T02:22:35;23.30;96.70
45115;DHT22;30877;43.706;10.780;2023-06-19T02:25:05;23.20;96.70
45115;DHT22;30877;43.706;10.780;2023-06-19T02:27:35;23.20;96.70
45115;DHT22;30877;43.706;10.780;2023-06-19T02:30:04;23.30;96.70
45115;DHT22;30877;43.706;10.780;2023-06-19T02:32:32;23.30;96.70
45115;DHT22;30877;43.706;10.780;2023-06-19T02:35:03;23.20;96.70
45115;DHT22;30877;43.706;10.780;2023-06-19T02:37:33;23.20;96.70
45115;DHT22;30877;43.706;10.780;2023-06-19T02:40:05;23.20;96.70
45115;DHT22;30877;43.706;10.780;2023-06-19T02:42:34;23.10;96.70
45115;DHT22;30877;43.706;10.780;2023-06-19T02:45:02;23.20;96.70
45115;DHT22;30877;43.706;10.780;2023-06-19T02:47:31;23.20;96.70
45115;DHT22;30877;43.706;10.780;2023-06-19T02:50:00;23.10;96.70
45115;DHT22;30877;43.706;10.780;2023-06-19T02:52:28;23.20;96.70
45115;DHT22;30877;43.706;10.780;2023-06-19T02:54:56;23.20;96.70
45115;DHT22;30877;43.706;10.780;2023-06-19T02:57:25;23.20;96.70
45115;DHT22;30877;43.706;10.780;2023-06-19T02:59:54;23.20;96.70
45115;DHT22;30877;43.706;10.780;2023-06-19T03:02:22;23.20;96.70
45115;DHT22;30877;43.706;10.780;2023-06-19T03:04:50;23.20;96.70
45115;DHT22;30877;43.706;10.780;2023-06-19T03:07:18;23.20;96.70
45115;DHT22;30877;43.706;10.780;2023-06-19T03:09:46;23.20;96.70
45115;DHT22;30877;43.706;10.780;2023-06-19T03:12:14;23.20;96.70
45115;DHT22;30877;43.706;10.780;2023-06-19T03:14:45;23.20;96.70
45115;DHT22;30877;43.706;10.780;2023-06-19T03:17:13;23.20;96.70
45115;DHT22;30877;43.706;10.780;2023-06-19T03:19:42;23.20;96.70
45115;DHT22;30877;43.706;10.780;2023-06-19T03:22:10;23.10;96.70
45115;DHT22;30877;43.706;10.780;2023-06-19T03:24:38;23.00;96.70
45115;DHT22;30877;43.706;10.780;2023-06-19T03:27:27;23.00;96.70
45115;DHT22;30877;43.706;10.780;2023-06-19T03:29:58;23.00;96.70
45115;DHT22;30877;43.706;10.780;2023-06-19T03:32:35;23.00;96.70
45115;DHT22;30877;43.706;10.780;2023-06-19T03:35:04;23.00;96.70
45115;DHT22;30877;43.706;10.780;2023-06-19T03:37:40;23.00;96.70
45115;DHT22;30877;43.706;10.780;2023-06-19T03:40:09;22.90;96.70
45115;DHT22;30877;43.706;10.780;2023-06-19T03:42:44;23.00;96.70
45115;DHT22;30877;43.706;10.780;2023-06-19T03:45:15;23.00;96.70
45115;DHT22;30877;43.706;10.780;2023-06-19T03:47:43;23.00;96.70
45115;DHT22;30877;43.706;10.780;2023-06-19T03:50:11;23.00;96.70
45115;DHT22;30877;43.706;10.780;2023-06-19T03:53:01;23.00;96.70
45115;DHT22;30877;43.706;10.780;2023-06-19T03:55:29;22.80;96.70
45115;DHT22;30877;43.706;10.780;2023-06-19T03:57:57;22.80;96.70
45115;DHT22;30877;43.706;10.780;2023-06-19T04:00:27;22.90;96.70
45115;DHT22;30877;43.706;10.780;2023-06-19T04:02:56;22.90;96.70
45115;DHT22;30877;43.706;10.780;2023-06-19T04:05:25;22.80;96.70
45115;DHT22;30877;43.706;10.780;2023-06-19T04:07:53;22.80;96.70
45115;DHT22;30877;43.706;10.780;2023-06-19T04:10:21;22.80;96.70
45115;DHT22;30877;43.706;10.780;2023-06-19T04:12:51;22.80;96.70
45115;DHT22;30877;43.706;10.780;2023-06-19T04:15:20;22.70;96.70
45115;DHT22;30877;43.706;10.780;2023-06-19T04:17:49;22.80;96.70
45115;DHT22;30877;43.706;10.780;2023-06-19T04:20:17;22.80;96.70
45115;DHT22;30877;43.706;10.780;2023-06-19T04:22:47;22.90;96.70
45115;DHT22;30877;43.706;10.780;2023-06-19T04:25:15;22.80;96.70
45115;DHT22;30877;43.706;10.780;2023-06-19T04:27:43;22.70;96.70
45115;DHT22;30877;43.706;10.780;2023-06-19T04:30:12;22.70;96.70
45115;DHT22;30877;43.706;10.780;2023-06-19T04:32:41;22.70;96.70
45115;DHT22;30877;43.706;10.780;2023-06-19T04:35:10;22.80;96.70
45115;DHT22;30877;43.706;10.780;2023-06-19T04:37:39;22.80;96.70
45115;DHT22;30877;43.706;10.780;2023-06-19T04:40:07;22.80;96.70
45115;DHT22;30877;43.706;10.780;2023-06-19T04:42:36;22.70;96.70
45115;DHT22;30877;43.706;10.780;2023-06-19T04:45:07;22.80;96.70
45115;DHT22;30877;43.706;10.780;2023-06-19T04:47:35;22.80;96.70
45115;DHT22;30877;43.706;10.780;2023-06-19T04:50:21;22.70;96.70
45115;DHT22;30877;43.706;10.780;2023-06-19T04:52:50;22.80;96.70
45115;DHT22;30877;43.706;10.780;2023-06-19T04:55:19;22.70;96.70
45115;DHT22;30877;43.706;10.780;2023-06-19T04:57:47;22.60;96.70
45115;DHT22;30877;43.706;10.780;2023-06-19T05:00:16;22.70;96.70
45115;DHT22;30877;43.706;10.780;2023-06-19T05:02:47;22.80;96.70
45115;DHT22;30877;43.706;10.780;2023-06-19T05:05:16;22.90;96.70
45115;DHT22;30877;43.706;10.780;2023-06-19T05:07:46;22.80;96.70
45115;DHT22;30877;43.706;10.780;2023-06-19T05:10:14;22.80;96.70
45115;DHT22;30877;43.706;10.780;2023-06-19T05:12:42;22.80;96.70
45115;DHT22;30877;43.706;10.780;2023-06-19T05:15:11;22.80;96.70
45115;DHT22;30877;43.706;10.780;2023-06-19T05:17:39;22.80;96.70
45115;DHT22;30877;43.706;10.780;2023-06-19T05:20:08;22.90;96.70
45115;DHT22;30877;43.706;10.780;2023-06-19T05:22:36;22.80;96.70
45115;DHT22;30877;43.706;10.780;2023-06-19T05:25:07;22.90;96.70
45115;DHT22;30877;43.706;10.780;2023-06-19T05:27:35;23.00;96.70
45115;DHT22;30877;43.706;10.780;2023-06-19T05:30:04;22.80;96.70
45115;DHT22;30877;43.706;10.780;2023-06-19T05:32:33;22.80;96.70
45115;DHT22;30877;43.706;10.780;2023-06-19T05:35:01;22.90;96.70
45115;DHT22;30877;43.706;10.780;2023-06-19T05:37:29;22.80;96.70
45115;DHT22;30877;43.706;10.780;2023-06-19T05:39:57;22.90;96.70
45115;DHT22;30877;43.706;10.780;2023-06-19T05:42:27;23.00;96.70
45115;DHT22;30877;43.706;10.780;2023-06-19T05:44:55;23.00;96.70
45115;DHT22;30877;43.706;10.780;2023-06-19T05:47:23;23.00;96.70
45115;DHT22;30877;43.706;10.780;2023-06-19T05:49:53;23.10;96.70
45115;DHT22;30877;43.706;10.780;2023-06-19T05:52:21;23.10;96.70
45115;DHT22;30877;43.706;10.780;2023-06-19T05:54:49;23.00;96.70
45115;DHT22;30877;43.706;10.780;2023-06-19T05:57:18;22.90;96.70
45115;DHT22;30877;43.706;10.780;2023-06-19T05:59:50;22.90;96.70
45115;DHT22;30877;43.706;10.780;2023-06-19T06:02:19;22.90;96.70
45115;DHT22;30877;43.706;10.780;2023-06-19T06:05:05;22.90;96.70
45115;DHT22;30877;43.706;10.780;2023-06-19T06:07:33;22.90;96.70
45115;DHT22;30877;43.706;10.780;2023-06-19T06:10:03;23.00;96.70
45115;DHT22;30877;43.706;10.780;2023-06-19T06:12:34;23.00;96.70
45115;DHT22;30877;43.706;10.780;2023-06-19T06:15:05;23.10;96.70
45115;DHT22;30877;43.706;10.780;2023-06-19T06:17:34;23.10;96.70
45115;DHT22;30877;43.706;10.780;2023-06-19T06:20:49;23.10;96.70
45115;DHT22;30877;43.706;10.780;2023-06-19T06:23:17;23.10;96.70
45115;DHT22;30877;43.706;10.780;2023-06-19T06:25:46;23.20;96.70
45115;DHT22;30877;43.706;10.780;2023-06-19T06:28:33;23.20;96.70
45115;DHT22;30877;43.706;10.780;2023-06-19T06:31:08;23.30;96.70
45115;DHT22;30877;43.706;10.780;2023-06-19T06:33:37;23.40;96.70
45115;DHT22;30877;43.706;10.780;2023-06-19T06:36:05;23.50;96.70
45115;DHT22;30877;43.706;10.780;2023-06-19T06:38:35;23.50;96.70
45115;DHT22;30877;43.706;10.780;2023-06-19T06:41:03;23.50;96.70
45115;DHT22;30877;43.706;10.780;2023-06-19T06:43:31;23.40;96.70
45115;DHT22;30877;43.706;10.780;2023-06-19T06:45:59;23.30;96.70
45115;DHT22;30877;43.706;10.780;2023-06-19T06:48:29;23.30;96.70
45115;DHT22;30877;43.706;10.780;2023-06-19T06:50:58;23.30;96.70
45115;DHT22;30877;43.706;10.780;2023-06-19T06:53:29;23.40;96.70
45115;DHT22;30877;43.706;10.780;2023-06-19T06:55:59;23.60;96.70
45115;DHT22;30877;43.706;10.780;2023-06-19T06:58:27;23.70;96.70
45115;DHT22;30877;43.706;10.780;2023-06-19T07:00:56;23.80;96.70
45115;DHT22;30877;43.706;10.780;2023-06-19T07:03:25;23.90;96.70
45115;DHT22;30877;43.706;10.780;2023-06-19T07:05:54;23.90;96.70
45115;DHT22;30877;43.706;10.780;2023-06-19T07:08:22;24.00;96.70
45115;DHT22;30877;43.706;10.780;2023-06-19T07:10:51;24.10;96.70
45115;DHT22;30877;43.706;10.780;2023-06-19T07:13:19;24.20;96.70
45115;DHT22;30877;43.706;10.780;2023-06-19T07:15:48;24.30;96.70
45115;DHT22;30877;43.706;10.780;2023-06-19T07:18:16;24.30;96.70
45115;DHT22;30877;43.706;10.780;2023-06-19T07:20:44;24.40;96.70
45115;DHT22;30877;43.706;10.780;2023-06-19T07:23:14;24.60;96.70
45115;DHT22;30877;43.706;10.780;2023-06-19T07:25:42;24.70;96.70
45115;DHT22;30877;43.706;10.780;2023-06-19T07:28:10;24.70;96.70
45115;DHT22;30877;43.706;10.780;2023-06-19T07:30:39;24.90;96.70
45115;DHT22;30877;43.706;10.780;2023-06-19T07:33:09;25.00;96.70
45115;DHT22;30877;43.706;10.780;2023-06-19T07:35:43;25.10;96.70
45115;DHT22;30877;43.706;10.780;2023-06-19T07:38:13;25.20;96.70
45115;DHT22;30877;43.706;10.780;2023-06-19T07:40:44;25.30;96.70
45115;DHT22;30877;43.706;10.780;2023-06-19T07:43:13;25.30;96.70
45115;DHT22;30877;43.706;10.780;2023-06-19T07:45:41;25.40;96.70
45115;DHT22;30877;43.706;10.780;2023-06-19T07:48:09;25.40;96.70
45115;DHT22;30877;43.706;10.780;2023-06-19T07:50:38;25.40;96.70
45115;DHT22;30877;43.706;10.780;2023-06-19T07:53:08;25.40;96.70
45115;DHT22;30877;43.706;10.780;2023-06-19T07:55:37;25.30;96.70
45115;DHT22;30877;43.706;10.780;2023-06-19T07:58:06;25.40;96.70
45115;DHT22;30877;43.706;10.780;2023-06-19T08:00:34;25.40;96.70
45115;DHT22;30877;43.706;10.780;2023-06-19T08:03:03;25.30;96.70
45115;DHT22;30877;43.706;10.780;2023-06-19T08:05:32;25.40;96.70
45115;DHT22;30877;43.706;10.780;2023-06-19T08:08:00;25.40;96.70
45115;DHT22;30877;43.706;10.780;2023-06-19T08:10:29;25.40;96.70
45115;DHT22;30877;43.706;10.780;2023-06-19T08:12:59;25.50;96.70
45115;DHT22;30877;43.706;10.780;2023-06-19T08:15:27;25.60;96.70
45115;DHT22;30877;43.706;10.780;2023-06-19T08:17:55;25.60;96.70
45115;DHT22;30877;43.706;10.780;2023-06-19T08:20:24;25.70;96.70
45115;DHT22;30877;43.706;10.780;2023-06-19T08:22:56;25.80;96.70
45115;DHT22;30877;43.706;10.780;2023-06-19T08:25:24;26.00;96.70
45115;DHT22;30877;43.706;10.780;2023-06-19T08:27:53;26.00;96.70
45115;DHT22;30877;43.706;10.780;2023-06-19T08:30:22;26.00;96.70
45115;DHT22;30877;43.706;10.780;2023-06-19T08:32:51;26.10;96.70
45115;DHT22;30877;43.706;10.780;2023-06-19T08:35:22;26.20;96.70
45115;DHT22;30877;43.706;10.780;2023-06-19T08:38:01;26.20;96.70
45115;DHT22;30877;43.706;10.780;2023-06-19T08:40:29;26.30;96.70
45115;DHT22;30877;43.706;10.780;2023-06-19T08:42:57;26.50;96.70
45115;DHT22;30877;43.706;10.780;2023-06-19T08:45:28;26.50;96.70
45115;DHT22;30877;43.706;10.780;2023-06-19T08:47:58;26.40;96.70
45115;DHT22;30877;43.706;10.780;2023-06-19T08:50:27;26.40;96.70
45115;DHT22;30877;43.706;10.780;2023-06-19T08:52:57;26.50;96.70
45115;DHT22;30877;43.706;10.780;2023-06-19T08:55:25;26.60;96.70
45115;DHT22;30877;43.706;10.780;2023-06-19T08:57:53;26.60;96.70
45115;DHT22;30877;43.706;10.780;2023-06-19T09:00:25;26.70;96.70
45115;DHT22;30877;43.706;10.780;2023-06-19T09:03:01;26.80;96.70
45115;DHT22;30877;43.706;10.780;2023-06-19T09:05:41;26.90;96.70
45115;DHT22;30877;43.706;10.780;2023-06-19T09:08:14;26.90;96.70
45115;DHT22;30877;43.706;10.780;2023-06-19T09:10:53;26.90;96.70
45115;DHT22;30877;43.706;10.780;2023-06-19T09:13:21;27.00;96.70
45115;DHT22;30877;43.706;10.780;2023-06-19T09:15:58;27.00;96.70
45115;DHT22;30877;43.706;10.780;2023-06-19T09:18:29;27.10;96.70
45115;DHT22;30877;43.706;10.780;2023-06-19T09:20:59;27.10;96.70
45115;DHT22;30877;43.706;10.780;2023-06-19T09:23:31;27.30;96.70
45115;DHT22;30877;43.706;10.780;2023-06-19T09:26:03;27.30;96.70
45115;DHT22;30877;43.706;10.780;2023-06-19T09:28:41;27.50;96.70
45115;DHT22;30877;43.706;10.780;2023-06-19T09:31:12;27.60;96.70
45115;DHT22;30877;43.706;10.780;2023-06-19T09:33:42;27.60;96.70
45115;DHT22;30877;43.706;10.780;2023-06-19T09:36:11;27.60;96.70
45115;DHT22;30877;43.706;10.780;2023-06-19T09:38:39;27.60;96.70
45115;DHT22;30877;43.706;10.780;2023-06-19T09:41:12;27.70;96.70
45115;DHT22;30877;43.706;10.780;2023-06-19T09:43:42;27.90;96.70
45115;DHT22;30877;43.706;10.780;2023-06-19T09:46:14;28.10;96.70
45115;DHT22;30877;43.706;10.780;2023-06-19T09:48:45;28.30;96.70
45115;DHT22;30877;43.706;10.780;2023-06-19T09:51:18;28.20;96.70
45115;DHT22;30877;43.706;10.780;2023-06-19T09:53:51;28.10;96.70
45115;DHT22;30877;43.706;10.780;2023-06-19T09:56:20;28.00;96.70
45115;DHT22;30877;43.706;10.780;2023-06-19T09:58:52;28.10;96.70
45115;DHT22;30877;43.706;10.780;2023-06-19T10:01:21;28.10;96.70
45115;DHT22;30877;43.706;10.780;2023-06-19T10:04:02;28.20;96.70
45115;DHT22;30877;43.706;10.780;2023-06-19T10:06:32;28.40;96.70
45115;DHT22;30877;43.706;10.780;2023-06-19T10:09:09;28.50;96.70
45115;DHT22;30877;43.706;10.780;2023-06-19T10:11:48;28.60;96.70
45115;DHT22;30877;43.706;10.780;2023-06-19T10:14:19;28.70;96.70
45115;DHT22;30877;43.706;10.780;2023-06-19T10:16:55;28.80;96.70
45115;DHT22;30877;43.706;10.780;2023-06-19T10:19:25;28.90;96.70
45115;DHT22;30877;43.706;10.780;2023-06-19T10:21:54;28.70;96.70
45115;DHT22;30877;43.706;10.780;2023-06-19T10:24:25;28.60;96.70
45115;DHT22;30877;43.706;10.780;2023-06-19T10:27:04;28.60;96.70
45115;DHT22;30877;43.706;10.780;2023-06-19T10:29:43;28.60;96.70
45115;DHT22;30877;43.706;10.780;2023-06-19T10:32:24;28.90;96.70
45115;DHT22;30877;43.706;10.780;2023-06-19T10:35:11;28.90;96.70
45115;DHT22;30877;43.706;10.780;2023-06-19T10:37:39;29.10;96.70
45115;DHT22;30877;43.706;10.780;2023-06-19T10:40:08;29.20;96.70
45115;DHT22;30877;43.706;10.780;2023-06-19T10:42:38;29.30;96.70
45115;DHT22;30877;43.706;10.780;2023-06-19T10:45:10;29.30;96.70
45115;DHT22;30877;43.706;10.780;2023-06-19T10:47:40;29.30;96.70
45115;DHT22;30877;43.706;10.780;2023-06-19T10:50:14;29.50;96.70
45115;DHT22;30877;43.706;10.780;2023-06-19T10:52:44;29.60;96.70
45115;DHT22;30877;43.706;10.780;2023-06-19T10:55:12;29.60;96.70
45115;DHT22;30877;43.706;10.780;2023-06-19T10:57:44;29.70;96.70
45115;DHT22;30877;43.706;10.780;2023-06-19T11:00:23;29.70;96.70
45115;DHT22;30877;43.706;10.780;2023-06-19T11:02:52;29.80;96.70
45115;DHT22;30877;43.706;10.780;2023-06-19T11:05:23;30.10;96.70
45115;DHT22;30877;43.706;10.780;2023-06-19T11:07:52;30.30;96.70
45115;DHT22;30877;43.706;10.780;2023-06-19T11:10:22;30.40;96.70
45115;DHT22;30877;43.706;10.780;2023-06-19T11:12:53;30.40;96.70
45115;DHT22;30877;43.706;10.780;2023-06-19T11:15:29;30.30;96.70
45115;DHT22;30877;43.706;10.780;2023-06-19T11:17:57;30.50;96.70
45115;DHT22;30877;43.706;10.780;2023-06-19T11:20:28;30.50;96.70
45115;DHT22;30877;43.706;10.780;2023-06-19T11:22:57;30.50;96.70
45115;DHT22;30877;43.706;10.780;2023-06-19T11:25:35;30.60;96.70
45115;DHT22;30877;43.706;10.780;2023-06-19T11:28:28;30.80;96.70
45115;DHT22;30877;43.706;10.780;2023-06-19T11:31:02;30.70;96.70
45115;DHT22;30877;43.706;10.780;2023-06-19T11:33:33;30.70;96.70
45115;DHT22;30877;43.706;10.780;2023-06-19T11:36:03;30.80;96.70
45115;DHT22;30877;43.706;10.780;2023-06-19T11:38:31;30.90;96.70
45115;DHT22;30877;43.706;10.780;2023-06-19T11:41:02;30.90;96.70
45115;DHT22;30877;43.706;10.780;2023-06-19T11:43:34;30.90;96.70
45115;DHT22;30877;43.706;10.780;2023-06-19T11:46:06;31.00;96.70
45115;DHT22;30877;43.706;10.780;2023-06-19T11:48:37;31.10;96.70
45115;DHT22;30877;43.706;10.780;2023-06-19T11:51:06;31.10;96.70
45115;DHT22;30877;43.706;10.780;2023-06-19T11:53:35;31.10;96.70
45115;DHT22;30877;43.706;10.780;2023-06-19T11:56:04;31.10;96.70
45115;DHT22;30877;43.706;10.780;2023-06-19T11:58:32;31.20;96.70
45115;DHT22;30877;43.706;10.780;2023-06-19T12:01:00;31.30;96.70
45115;DHT22;30877;43.706;10.780;2023-06-19T12:03:28;31.30;96.70
45115;DHT22;30877;43.706;10.780;2023-06-19T12:05:56;31.30;96.70
45115;DHT22;30877;43.706;10.780;2023-06-19T12:08:26;31.50;96.70
45115;DHT22;30877;43.706;10.780;2023-06-19T12:10:54;31.50;96.70
45115;DHT22;30877;43.706;10.780;2023-06-19T12:13:22;31.50;96.70
45115;DHT22;30877;43.706;10.780;2023-06-19T12:15:50;31.70;96.70
45115;DHT22;30877;43.706;10.780;2023-06-19T12:18:18;31.60;96.70
45115;DHT22;30877;43.706;10.780;2023-06-19T12:20:46;31.80;96.70
45115;DHT22;30877;43.706;10.780;2023-06-19T12:23:15;31.90;96.70
45115;DHT22;30877;43.706;10.780;2023-06-19T12:25:44;31.80;96.70
45115;DHT22;30877;43.706;10.780;2023-06-19T12:28:12;31.70;96.70
45115;DHT22;30877;43.706;10.780;2023-06-19T12:30:46;31.80;96.70
45115;DHT22;30877;43.706;10.780;2023-06-19T12:33:16;31.90;96.70
45115;DHT22;30877;43.706;10.780;2023-06-19T12:35:47;32.00;96.70
45115;DHT22;30877;43.706;10.780;2023-06-19T12:38:15;32.10;96.70
45115;DHT22;30877;43.706;10.780;2023-06-19T12:40:45;32.00;96.70
45115;DHT22;30877;43.706;10.780;2023-06-19T12:43:13;32.10;96.70
45115;DHT22;30877;43.706;10.780;2023-06-19T12:45:41;32.30;96.70
45115;DHT22;30877;43.706;10.780;2023-06-19T12:48:11;32.30;96.70
45115;DHT22;30877;43.706;10.780;2023-06-19T12:50:39;32.30;96.70
45115;DHT22;30877;43.706;10.780;2023-06-19T12:53:07;32.10;96.70
45115;DHT22;30877;43.706;10.780;2023-06-19T12:55:35;32.20;96.70
45115;DHT22;30877;43.706;10.780;2023-06-19T12:58:24;32.30;96.70
45115;DHT22;30877;43.706;10.780;2023-06-19T13:00:52;32.20;96.70
45115;DHT22;30877;43.706;10.780;2023-06-19T13:03:21;32.40;96.70
45115;DHT22;30877;43.706;10.780;2023-06-19T13:05:49;32.40;96.70
45115;DHT22;30877;43.706;10.780;2023-06-19T13:08:17;32.60;96.70
45115;DHT22;30877;43.706;10.780;2023-06-19T13:10:45;32.80;96.70
45115;DHT22;30877;43.706;10.780;2023-06-19T13:13:14;33.00;96.70
45115;DHT22;30877;43.706;10.780;2023-06-19T13:15:43;33.10;96.70
45115;DHT22;30877;43.706;10.780;2023-06-19T13:18:12;33.10;96.70
45115;DHT22;30877;43.706;10.780;2023-06-19T13:20:40;33.30;96.70
45115;DHT22;30877;43.706;10.780;2023-06-19T13:23:09;33.20;96.70
45115;DHT22;30877;43.706;10.780;2023-06-19T13:25:37;33.40;96.70
45115;DHT22;30877;43.706;10.780;2023-06-19T13:28:05;33.50;96.70
45115;DHT22;30877;43.706;10.780;2023-06-19T13:30:33;33.70;96.70
45115;DHT22;30877;43.706;10.780;2023-06-19T13:33:03;33.70;96.70
45115;DHT22;30877;43.706;10.780;2023-06-19T13:35:33;33.70;96.70
45115;DHT22;30877;43.706;10.780;2023-06-19T13:38:06;33.80;96.70
45115;DHT22;30877;43.706;10.780;2023-06-19T13:40:34;33.90;96.70
45115;DHT22;30877;43.706;10.780;2023-06-19T13:43:02;34.10;96.70
45115;DHT22;30877;43.706;10.780;2023-06-19T13:45:31;34.10;96.70
45115;DHT22;30877;43.706;10.780;2023-06-19T13:47:59;34.30;96.70
45115;DHT22;30877;43.706;10.780;2023-06-19T13:50:29;34.40;96.70
45115;DHT22;30877;43.706;10.780;2023-06-19T13:52:57;34.50;96.70
45115;DHT22;30877;43.706;10.780;2023-06-19T13:55:25;34.40;96.70
45115;DHT22;30877;43.706;10.780;2023-06-19T13:57:53;34.70;96.70
45115;DHT22;30877;43.706;10.780;2023-06-19T14:00:21;35.10;96.70
45115;DHT22;30877;43.706;10.780;2023-06-19T14:02:50;35.30;96.70
45115;DHT22;30877;43.706;10.780;2023-06-19T14:05:19;35.20;96.70
45115;DHT22;30877;43.706;10.780;2023-06-19T14:07:51;35.00;94.90
45115;DHT22;30877;43.706;10.780;2023-06-19T14:10:19;35.30;95.00
45115;DHT22;30877;43.706;10.780;2023-06-19T14:12:48;35.40;93.80
45115;DHT22;30877;43.706;10.780;2023-06-19T14:15:16;35.50;93.20
45115;DHT22;30877;43.706;10.780;2023-06-19T14:17:44;35.40;92.00
45115;DHT22;30877;43.706;10.780;2023-06-19T14:20:12;35.60;92.40
45115;DHT22;30877;43.706;10.780;2023-06-19T14:22:41;36.00;90.30
45115;DHT22;30877;43.706;10.780;2023-06-19T14:25:10;36.30;88.90
45115;DHT22;30877;43.706;10.780;2023-06-19T14:27:39;36.40;88.90
45115;DHT22;30877;43.706;10.780;2023-06-19T14:30:08;36.20;89.60
45115;DHT22;30877;43.706;10.780;2023-06-19T14:32:36;36.40;90.70
45115;DHT22;30877;43.706;10.780;2023-06-19T14:35:05;36.40;89.50
45115;DHT22;30877;43.706;10.780;2023-06-19T14:37:34;36.40;92.10
45115;DHT22;30877;43.706;10.780;2023-06-19T14:40:02;36.90;91.60
45115;DHT22;30877;43.706;10.780;2023-06-19T14:42:32;36.90;88.30
45115;DHT22;30877;43.706;10.780;2023-06-19T14:45:00;36.90;88.80
45115;DHT22;30877;43.706;10.780;2023-06-19T14:47:28;37.00;88.10
45115;DHT22;30877;43.706;10.780;2023-06-19T14:49:57;37.10;87.80
45115;DHT22;30877;43.706;10.780;2023-06-19T14:52:25;37.40;88.40
45115;DHT22;30877;43.706;10.780;2023-06-19T14:54:53;37.30;89.40
45115;DHT22;30877;43.706;10.780;2023-06-19T14:57:25;37.50;87.20
45115;DHT22;30877;43.706;10.780;2023-06-19T14:59:55;37.50;85.60
45115;DHT22;30877;43.706;10.780;2023-06-19T15:02:23;37.60;84.90
45115;DHT22;30877;43.706;10.780;2023-06-19T15:04:51;37.70;84.40
45115;DHT22;30877;43.706;10.780;2023-06-19T15:07:33;37.80;85.50
45115;DHT22;30877;43.706;10.780;2023-06-19T15:10:01;37.50;83.90
45115;DHT22;30877;43.706;10.780;2023-06-19T15:12:32;37.60;83.60
45115;DHT22;30877;43.706;10.780;2023-06-19T15:15:05;37.70;84.70
45115;DHT22;30877;43.706;10.780;2023-06-19T15:17:33;38.00;84.20
45115;DHT22;30877;43.706;10.780;2023-06-19T15:20:04;37.50;83.40
45115;DHT22;30877;43.706;10.780;2023-06-19T15:22:32;37.30;84.70
45115;DHT22;30877;43.706;10.780;2023-06-19T15:25:01;37.50;84.40
45115;DHT22;30877;43.706;10.780;2023-06-19T15:27:29;37.60;84.40
45115;DHT22;30877;43.706;10.780;2023-06-19T15:29:57;37.70;85.00
45115;DHT22;30877;43.706;10.780;2023-06-19T15:32:27;38.00;84.40
45115;DHT22;30877;43.706;10.780;2023-06-19T15:34:55;38.20;84.60